createdAt,value
2023-03-16T00:02:25.577Z,3.41
2023-03-16T00:04:52.533Z,3.37
2023-03-16T00:07:19.327Z,3.41
2023-03-16T00:09:47.009Z,3.37
2023-03-16T00:12:16.526Z,3.40
2023-03-16T00:14:44.835Z,3.40
2023-03-16T00:17:19.438Z,3.42
2023-03-16T00:19:55.509Z,3.47
2023-03-16T00:22:24.639Z,3.50
2023-03-16T00:24:53.122Z,3.37
2023-03-16T00:27:20.442Z,3.49
2023-03-16T00:29:48.877Z,3.37
2023-03-16T00:32:21.056Z,3.44
2023-03-16T00:34:48.203Z,3.54
2023-03-16T00:37:19.476Z,3.53
2023-03-16T00:39:47.536Z,3.53
2023-03-16T00:42:15.440Z,3.62
2023-03-16T00:44:43.280Z,3.59
2023-03-16T00:47:14.779Z,3.58
2023-03-16T00:49:44.797Z,3.63
2023-03-16T00:52:16.434Z,3.57
2023-03-16T00:54:44.408Z,3.64
2023-03-16T00:57:14.102Z,3.71
2023-03-16T00:59:41.235Z,3.68
2023-03-16T01:02:10.170Z,3.54
2023-03-16T01:04:37.712Z,3.63
2023-03-16T01:07:05.618Z,3.65
2023-03-16T01:09:37.199Z,3.62
2023-03-16T01:12:09.315Z,3.68
2023-03-16T01:14:37.004Z,3.64
2023-03-16T01:17:05.398Z,3.69
2023-03-16T01:19:34.324Z,3.67
2023-03-16T01:22:02.248Z,3.61
2023-03-16T01:24:29.161Z,3.67
2023-03-16T01:26:55.933Z,3.72
2023-03-16T01:29:23.115Z,3.72
2023-03-16T01:31:50.514Z,3.70
2023-03-16T01:34:18.796Z,3.67
2023-03-16T01:36:48.049Z,3.62
2023-03-16T01:39:15.833Z,3.72
2023-03-16T01:41:43.656Z,3.71
2023-03-16T01:44:16.595Z,3.51
2023-03-16T01:46:44.768Z,3.76
2023-03-16T01:49:25.313Z,3.85
2023-03-16T01:52:06.125Z,3.86
2023-03-16T01:54:32.937Z,3.91
2023-03-16T01:57:15.504Z,3.88
2023-03-16T01:59:47.177Z,3.85
2023-03-16T02:02:16.378Z,3.89
2023-03-16T02:05:07.228Z,3.85
2023-03-16T02:07:38.219Z,3.76
2023-03-16T02:10:07.041Z,3.82
2023-03-16T02:12:33.934Z,3.82
2023-03-16T02:15:00.577Z,3.89
2023-03-16T02:17:29.293Z,3.93
2023-03-16T02:20:29.074Z,3.99
2023-03-16T02:22:56.037Z,3.92
2023-03-16T02:25:26.805Z,3.96
2023-03-16T02:28:21.616Z,3.98
2023-03-16T02:30:48.748Z,3.98
2023-03-16T02:33:16.770Z,3.93
2023-03-16T02:35:43.465Z,4.00
2023-03-16T02:38:10.439Z,4.02
2023-03-16T02:40:38.787Z,4.01
2023-03-16T02:43:13.021Z,4.09
2023-03-16T02:45:53.076Z,4.04
2023-03-16T02:48:25.465Z,3.98
2023-03-16T02:50:54.017Z,3.97
2023-03-16T02:53:21.055Z,4.03
2023-03-16T02:55:47.788Z,4.03
2023-03-16T02:58:16.149Z,3.86
2023-03-16T03:00:43.143Z,3.99
2023-03-16T03:03:09.971Z,3.96
2023-03-16T03:05:37.683Z,3.86
2023-03-16T03:08:05.405Z,3.84
2023-03-16T03:10:32.352Z,3.72
2023-03-16T03:12:59.092Z,3.69
2023-03-16T03:15:25.745Z,3.69
2023-03-16T03:17:53.082Z,3.75
2023-03-16T03:20:20.109Z,3.71
2023-03-16T03:22:48.873Z,3.74
2023-03-16T03:25:18.604Z,3.62
2023-03-16T03:27:46.569Z,3.69
2023-03-16T03:30:15.923Z,3.69
2023-03-16T03:32:44.328Z,3.63
2023-03-16T03:35:12.868Z,3.51
2023-03-16T03:37:41.332Z,3.61
2023-03-16T03:40:10.454Z,3.56
2023-03-16T03:42:37.465Z,3.51
2023-03-16T03:45:04.740Z,3.58
2023-03-16T03:47:31.738Z,3.36
2023-03-16T03:49:58.424Z,3.39
2023-03-16T03:52:25.140Z,3.38
2023-03-16T03:54:51.778Z,3.43
2023-03-16T03:57:19.861Z,3.45
2023-03-16T03:59:48.348Z,3.46
2023-03-16T04:02:15.238Z,3.34
2023-03-16T04:04:42.391Z,3.36
2023-03-16T04:07:09.500Z,3.27
2023-03-16T04:09:36.628Z,3.25
2023-03-16T04:12:05.570Z,3.33
2023-03-16T04:14:32.775Z,3.28
2023-03-16T04:16:59.578Z,3.32
2023-03-16T04:19:26.457Z,3.36
2023-03-16T04:21:53.345Z,3.16
2023-03-16T04:24:20.126Z,3.25
2023-03-16T04:26:47.008Z,3.37
2023-03-16T04:29:15.016Z,3.41
2023-03-16T04:31:42.522Z,3.17
2023-03-16T04:34:09.408Z,3.34
2023-03-16T04:36:36.072Z,3.40
2023-03-16T04:39:03.179Z,3.42
2023-03-16T04:41:29.961Z,3.44
2023-03-16T04:43:57.858Z,3.30
2023-03-16T04:46:26.977Z,3.37
2023-03-16T04:48:54.351Z,3.19
2023-03-16T04:51:21.663Z,3.13
2023-03-16T04:53:48.327Z,3.02
2023-03-16T04:56:19.897Z,2.88
2023-03-16T04:58:47.878Z,2.60
2023-03-16T05:01:15.497Z,2.60
2023-03-16T05:03:43.720Z,2.47
2023-03-16T05:06:12.063Z,2.50
2023-03-16T05:08:38.895Z,2.44
2023-03-16T05:11:05.872Z,2.31
2023-03-16T05:13:32.951Z,2.33
2023-03-16T05:15:59.821Z,2.43
2023-03-16T05:18:27.127Z,2.33
2023-03-16T05:20:56.177Z,2.23
2023-03-16T05:23:23.483Z,2.35
2023-03-16T05:25:50.839Z,2.48
2023-03-16T05:28:17.726Z,2.34
2023-03-16T05:30:45.501Z,2.26
2023-03-16T05:33:12.696Z,2.39
2023-03-16T05:35:39.690Z,2.25
2023-03-16T05:38:06.522Z,2.32
2023-03-16T05:40:43.478Z,2.15
2023-03-16T05:43:10.578Z,2.26
2023-03-16T05:45:37.373Z,1.98
2023-03-16T05:48:06.025Z,2.27
2023-03-16T05:50:32.886Z,2.07
2023-03-16T05:52:59.689Z,2.10
2023-03-16T05:55:26.453Z,2.09
2023-03-16T05:57:53.174Z,2.07
2023-03-16T06:00:20.997Z,2.12
2023-03-16T06:02:49.366Z,1.73
2023-03-16T06:05:21.942Z,1.79
2023-03-16T06:07:50.232Z,1.88
2023-03-16T06:10:17.507Z,1.74
2023-03-16T06:12:44.721Z,1.87
2023-03-16T06:15:11.888Z,1.92
2023-03-16T06:17:39.635Z,1.84
2023-03-16T06:20:11.477Z,1.79
2023-03-16T06:22:39.617Z,1.94
2023-03-16T06:25:07.024Z,1.81
2023-03-16T06:27:33.802Z,1.74
2023-03-16T06:30:00.794Z,1.75
2023-03-16T06:32:27.513Z,1.79
2023-03-16T06:34:54.175Z,1.74
2023-03-16T06:37:21.911Z,1.82
2023-03-16T06:39:48.784Z,1.84
2023-03-16T06:42:15.677Z,1.95
2023-03-16T06:44:42.845Z,2.01
2023-03-16T06:47:10.534Z,2.05
2023-03-16T06:49:37.473Z,2.12
2023-03-16T06:52:04.580Z,1.97
2023-03-16T06:54:34.395Z,1.95
2023-03-16T06:57:01.735Z,2.00
2023-03-16T06:59:28.729Z,1.95
2023-03-16T07:01:56.235Z,2.06
2023-03-16T07:04:23.094Z,2.02
2023-03-16T07:06:49.858Z,1.93
2023-03-16T07:09:16.572Z,1.94
2023-03-16T07:11:43.468Z,2.12
2023-03-16T07:14:10.195Z,2.00
2023-03-16T07:16:36.891Z,2.10
2023-03-16T07:19:03.786Z,2.08
2023-03-16T07:21:32.262Z,2.21
2023-03-16T07:23:59.002Z,2.23
2023-03-16T07:26:25.706Z,2.18
2023-03-16T07:28:52.439Z,2.34
2023-03-16T07:31:19.283Z,2.32
2023-03-16T07:33:46.323Z,2.35
2023-03-16T07:36:13.067Z,2.41
2023-03-16T07:38:40.237Z,2.43
2023-03-16T07:41:06.950Z,2.50
2023-03-16T07:43:34.506Z,2.61
2023-03-16T07:46:01.636Z,2.54
2023-03-16T07:48:28.529Z,2.60
2023-03-16T07:50:55.544Z,2.76
2023-03-16T07:53:22.813Z,2.46
2023-03-16T07:55:49.631Z,2.62
2023-03-16T07:58:16.437Z,2.65
2023-03-16T08:00:43.226Z,2.52
2023-03-16T08:03:10.253Z,2.60
2023-03-16T08:05:37.034Z,2.76
2023-03-16T08:08:03.932Z,2.72
2023-03-16T08:10:31.600Z,2.78
2023-03-16T08:12:59.063Z,2.77
2023-03-16T08:15:25.976Z,2.78
2023-03-16T08:17:52.790Z,2.77
2023-03-16T08:20:19.711Z,2.77
2023-03-16T08:22:46.985Z,2.80
2023-03-16T08:25:14.835Z,2.82
2023-03-16T08:27:43.253Z,2.79
2023-03-16T08:30:11.870Z,2.94
2023-03-16T08:32:52.596Z,2.83
2023-03-16T08:35:19.605Z,2.72
2023-03-16T08:37:46.618Z,2.85
2023-03-16T08:40:18.906Z,2.34
2023-03-16T08:42:45.979Z,2.90
2023-03-16T08:45:14.305Z,2.85
2023-03-16T08:47:41.387Z,3.03
2023-03-16T08:50:09.383Z,3.14
2023-03-16T08:52:38.899Z,3.22
2023-03-16T08:55:06.622Z,3.31
2023-03-16T08:57:34.130Z,3.19
2023-03-16T09:00:01.552Z,3.06
2023-03-16T09:02:29.172Z,3.15
2023-03-16T09:04:56.512Z,3.34
2023-03-16T09:07:23.615Z,3.01
2023-03-16T09:09:51.019Z,2.98
2023-03-16T09:12:17.955Z,2.79
2023-03-16T09:14:46.175Z,2.90
2023-03-16T09:17:16.062Z,3.02
2023-03-16T09:19:52.145Z,3.05
2023-03-16T09:22:20.637Z,3.20
2023-03-16T09:24:48.663Z,3.10
2023-03-16T09:27:18.606Z,3.33
2023-03-16T09:29:45.580Z,3.21
2023-03-16T09:32:13.223Z,3.23
2023-03-16T09:34:40.367Z,3.22
2023-03-16T09:37:07.312Z,3.13
2023-03-16T09:39:34.120Z,3.42
2023-03-16T09:42:04.578Z,3.49
2023-03-16T09:45:00.630Z,3.47
2023-03-16T09:47:31.582Z,3.58
2023-03-16T09:50:01.059Z,3.59
2023-03-16T09:52:49.248Z,3.61
2023-03-16T09:55:25.031Z,3.61
2023-03-16T09:57:53.872Z,3.68
2023-03-16T10:00:22.284Z,3.68
2023-03-16T10:03:08.389Z,3.71
2023-03-16T10:05:36.194Z,3.72
2023-03-16T10:08:25.336Z,3.85
2023-03-16T10:11:38.706Z,3.80
2023-03-16T10:14:17.845Z,4.01
2023-03-16T10:17:10.820Z,4.06
2023-03-16T10:19:54.396Z,3.94
2023-03-16T10:22:29.917Z,3.76
2023-03-16T10:25:39.702Z,4.06
2023-03-16T10:28:06.633Z,3.97
2023-03-16T10:30:37.538Z,3.97
2023-03-16T10:33:13.474Z,4.04
2023-03-16T10:35:51.812Z,4.00
2023-03-16T10:38:29.106Z,3.92
2023-03-16T10:40:57.960Z,3.77
2023-03-16T10:43:25.400Z,3.90
2023-03-16T10:45:52.398Z,3.64
2023-03-16T10:48:21.327Z,4.04
2023-03-16T10:50:52.791Z,4.08
2023-03-16T10:53:28.997Z,3.82
2023-03-16T10:56:00.885Z,4.04
2023-03-16T10:58:31.072Z,3.67
2023-03-16T11:00:58.654Z,3.75
2023-03-16T11:03:41.314Z,3.84
2023-03-16T11:06:20.702Z,4.06
2023-03-16T11:08:47.975Z,4.00
2023-03-16T11:11:18.811Z,4.00
2023-03-16T11:13:47.703Z,3.85
2023-03-16T11:16:30.706Z,4.08
2023-03-16T11:19:00.795Z,4.14
2023-03-16T11:21:46.927Z,4.07
2023-03-16T11:24:23.903Z,3.88
2023-03-16T11:26:56.044Z,3.71
2023-03-16T11:29:34.886Z,3.71
2023-03-16T11:32:06.172Z,3.68
2023-03-16T11:34:33.398Z,3.85
2023-03-16T11:37:13.248Z,3.82
2023-03-16T11:39:46.236Z,3.78
2023-03-16T11:42:34.539Z,3.67
2023-03-16T11:45:19.703Z,3.71
2023-03-16T11:48:03.129Z,3.81
2023-03-16T11:50:52.853Z,3.73
2023-03-16T11:54:00.390Z,3.79
2023-03-16T11:56:44.313Z,3.93
2023-03-16T11:59:11.298Z,4.07
2023-03-16T12:02:00.706Z,4.09
2023-03-16T12:04:56.999Z,3.96
2023-03-16T12:07:56.967Z,3.93
2023-03-16T12:10:26.808Z,3.82
2023-03-16T12:13:08.820Z,3.80
2023-03-16T12:15:55.547Z,3.84
2023-03-16T12:18:43.906Z,3.78
2023-03-16T12:21:15.077Z,3.73
2023-03-16T12:23:53.454Z,3.72
2023-03-16T12:26:22.479Z,3.72
2023-03-16T12:28:50.851Z,3.70
2023-03-16T12:31:22.808Z,3.73
2023-03-16T12:33:59.036Z,3.65
2023-03-16T12:37:07.408Z,3.54
2023-03-16T12:40:08.098Z,3.51
2023-03-16T12:43:06.003Z,3.53
2023-03-16T12:45:42.194Z,3.56
2023-03-16T12:48:12.745Z,3.57
2023-03-16T12:51:09.097Z,3.72
2023-03-16T12:54:06.424Z,3.63
2023-03-16T12:56:36.030Z,3.50
2023-03-16T12:59:05.996Z,3.43
2023-03-16T13:01:42.728Z,3.42
2023-03-16T13:04:12.635Z,3.26
2023-03-16T13:06:44.460Z,3.36
2023-03-16T13:09:12.537Z,3.27
2023-03-16T13:11:50.142Z,3.17
2023-03-16T13:14:38.754Z,3.18
2023-03-16T13:17:29.688Z,3.15
2023-03-16T13:20:31.271Z,3.19
2023-03-16T13:23:24.692Z,3.24
2023-03-16T13:26:20.019Z,3.19
2023-03-16T13:28:51.573Z,3.31
2023-03-16T13:31:25.790Z,3.10
2023-03-16T13:33:56.016Z,3.07
2023-03-16T13:36:25.525Z,3.09
2023-03-16T13:39:13.639Z,3.12
2023-03-16T13:41:43.616Z,3.03
2023-03-16T13:44:15.216Z,3.17
2023-03-16T13:46:41.900Z,3.20
2023-03-16T13:49:12.197Z,3.13
2023-03-16T13:51:38.874Z,3.07
2023-03-16T13:54:16.261Z,2.95
2023-03-16T13:56:44.417Z,2.95
2023-03-16T13:59:11.749Z,2.86
2023-03-16T14:01:39.030Z,2.94
2023-03-16T14:04:13.647Z,2.90
2023-03-16T14:06:41.487Z,2.86
2023-03-16T14:09:22.077Z,2.84
2023-03-16T14:11:48.938Z,2.70
2023-03-16T14:14:17.833Z,2.75
2023-03-16T14:16:44.780Z,2.73
2023-03-16T14:19:23.042Z,2.77
2023-03-16T14:21:50.176Z,2.66
2023-03-16T14:24:43.116Z,2.62
2023-03-16T14:27:21.989Z,2.42
2023-03-16T14:30:14.788Z,2.66
2023-03-16T14:32:42.023Z,2.66
2023-03-16T14:35:18.365Z,2.66
2023-03-16T14:37:45.120Z,2.66
2023-03-16T14:40:22.982Z,2.48
2023-03-16T14:42:49.982Z,2.47
2023-03-16T14:45:17.707Z,2.35
2023-03-16T14:47:46.229Z,2.42
2023-03-16T14:50:39.378Z,2.45
2023-03-16T14:53:06.955Z,2.42
2023-03-16T14:55:33.763Z,2.31
2023-03-16T14:58:00.620Z,2.27
2023-03-16T15:00:27.325Z,2.32
2023-03-16T15:03:06.779Z,2.34
2023-03-16T15:05:39.270Z,2.38
2023-03-16T15:08:07.880Z,2.39
2023-03-16T15:10:35.485Z,2.36
2023-03-16T15:13:13.144Z,2.34
2023-03-16T15:15:44.176Z,2.27
2023-03-16T15:18:11.003Z,2.20
2023-03-16T15:20:43.482Z,2.12
2023-03-16T15:23:13.913Z,2.26
2023-03-16T15:25:44.967Z,2.26
2023-03-16T15:28:26.121Z,2.19
2023-03-16T15:30:54.638Z,1.94
2023-03-16T15:33:22.213Z,2.01
2023-03-16T15:35:50.206Z,2.05
2023-03-16T15:38:21.576Z,2.09
2023-03-16T15:40:51.346Z,2.06
2023-03-16T15:43:24.663Z,1.92
2023-03-16T15:45:54.844Z,1.96
2023-03-16T15:48:24.724Z,1.97
2023-03-16T15:50:58.890Z,1.97
2023-03-16T15:53:35.778Z,1.81
2023-03-16T15:56:11.713Z,1.75
2023-03-16T15:58:42.003Z,1.85
2023-03-16T16:01:21.386Z,1.76
2023-03-16T16:03:48.537Z,1.82
2023-03-16T16:06:15.290Z,1.80
2023-03-16T16:08:42.067Z,1.86
2023-03-16T16:11:35.171Z,1.79
2023-03-16T16:14:02.299Z,1.68
2023-03-16T16:16:29.916Z,1.72
2023-03-16T16:18:57.076Z,1.79
2023-03-16T16:21:28.088Z,1.63
2023-03-16T16:23:55.194Z,1.66
2023-03-16T16:26:47.029Z,1.78
2023-03-16T16:29:16.826Z,1.68
2023-03-16T16:31:44.097Z,1.75
2023-03-16T16:34:16.145Z,1.80
2023-03-16T16:36:43.497Z,1.74
2023-03-16T16:39:10.412Z,1.75
2023-03-16T16:41:37.538Z,1.68
2023-03-16T16:44:08.441Z,1.76
2023-03-16T16:46:42.551Z,1.68
2023-03-16T16:49:19.651Z,1.68
2023-03-16T16:51:46.904Z,1.63
2023-03-16T16:54:22.104Z,1.63
2023-03-16T16:56:50.897Z,1.69
2023-03-16T16:59:23.356Z,1.76
2023-03-16T17:01:57.678Z,1.62
2023-03-16T17:04:27.282Z,1.74
2023-03-16T17:07:01.624Z,1.80
2023-03-16T17:09:30.247Z,1.67
2023-03-16T17:11:59.279Z,1.81
2023-03-16T17:14:28.565Z,1.62
2023-03-16T17:16:55.782Z,1.61
2023-03-16T17:19:24.953Z,1.65
2023-03-16T17:21:53.067Z,1.67
2023-03-16T17:24:19.915Z,1.67
2023-03-16T17:26:51.257Z,1.74
2023-03-16T17:29:38.255Z,1.75
2023-03-16T17:32:17.439Z,1.75
2023-03-16T17:34:44.285Z,1.81
2023-03-16T17:37:21.167Z,1.74
2023-03-16T17:39:48.323Z,1.79
2023-03-16T17:42:19.549Z,1.82
2023-03-16T17:44:48.321Z,1.85
2023-03-16T17:47:24.740Z,1.90
2023-03-16T17:49:52.105Z,1.85
2023-03-16T17:52:21.186Z,1.76
2023-03-16T17:54:49.289Z,1.77
2023-03-16T17:57:27.771Z,1.74
2023-03-16T17:59:55.098Z,1.72
2023-03-16T18:02:51.721Z,1.68
2023-03-16T18:05:23.861Z,1.76
2023-03-16T18:07:51.818Z,1.80
2023-03-16T18:10:27.098Z,1.81
2023-03-16T18:13:02.210Z,1.82
2023-03-16T18:15:34.398Z,1.84
2023-03-16T18:18:02.116Z,1.56
2023-03-16T18:20:36.337Z,1.81
2023-03-16T18:23:15.874Z,1.87
2023-03-16T18:25:43.116Z,1.56
2023-03-16T18:28:10.996Z,1.78
2023-03-16T18:30:39.097Z,1.77
2023-03-16T18:33:07.489Z,1.77
2023-03-16T18:35:35.629Z,1.76
2023-03-16T18:38:03.220Z,1.56
2023-03-16T18:40:30.659Z,1.63
2023-03-16T18:42:57.761Z,1.59
2023-03-16T18:45:25.663Z,1.53
2023-03-16T18:47:56.628Z,1.53
2023-03-16T18:50:28.294Z,1.43
2023-03-16T18:52:55.592Z,1.55
2023-03-16T18:55:25.206Z,1.51
2023-03-16T18:57:56.430Z,1.44
2023-03-16T19:00:27.300Z,1.40
2023-03-16T19:02:57.010Z,1.39
2023-03-16T19:05:31.854Z,1.33
2023-03-16T19:07:58.614Z,1.40
2023-03-16T19:10:30.135Z,1.31
2023-03-16T19:12:56.892Z,1.23
2023-03-16T19:15:29.544Z,1.40
2023-03-16T19:17:56.612Z,1.29
2023-03-16T19:20:25.796Z,1.35
2023-03-16T19:23:00.936Z,1.18
2023-03-16T19:25:34.886Z,1.35
2023-03-16T19:28:02.217Z,1.29
2023-03-16T19:30:31.212Z,1.30
2023-03-16T19:32:58.729Z,1.26
2023-03-16T19:35:44.259Z,1.15
2023-03-16T19:38:14.438Z,1.21
2023-03-16T19:40:41.767Z,1.16
2023-03-16T19:43:18.918Z,1.19
2023-03-16T19:45:46.992Z,1.01
2023-03-16T19:48:16.512Z,1.18
2023-03-16T19:50:43.279Z,1.19
2023-03-16T19:53:16.357Z,1.14
2023-03-16T19:55:44.692Z,1.16
2023-03-16T19:58:21.038Z,0.85
2023-03-16T20:00:47.894Z,1.05
2023-03-16T20:03:14.882Z,1.04
2023-03-16T20:05:41.569Z,1.08
2023-03-16T20:08:29.013Z,1.02
2023-03-16T20:11:01.787Z,1.12
2023-03-16T20:13:29.028Z,1.01
2023-03-16T20:15:56.110Z,1.01
2023-03-16T20:18:23.794Z,1.03
2023-03-16T20:20:50.912Z,0.87
2023-03-16T20:23:19.208Z,0.95
2023-03-16T20:25:47.814Z,0.85
2023-03-16T20:28:19.164Z,0.88
2023-03-16T20:30:47.365Z,0.85
2023-03-16T20:33:23.788Z,0.84
2023-03-16T20:35:53.620Z,0.75
2023-03-16T20:38:21.338Z,0.89
2023-03-16T20:40:52.406Z,0.80
2023-03-16T20:43:23.771Z,0.82
2023-03-16T20:45:51.846Z,0.86
2023-03-16T20:48:19.033Z,0.72
2023-03-16T20:50:48.411Z,0.82
2023-03-16T20:53:15.217Z,0.77
2023-03-16T20:55:41.985Z,0.84
2023-03-16T20:58:20.899Z,0.80
2023-03-16T21:00:50.647Z,0.85
2023-03-16T21:03:23.187Z,0.76
2023-03-16T21:05:51.676Z,0.84
2023-03-16T21:08:19.317Z,0.75
2023-03-16T21:10:48.657Z,0.79
2023-03-16T21:13:25.796Z,0.81
2023-03-16T21:15:52.916Z,0.56
2023-03-16T21:18:20.926Z,0.74
2023-03-16T21:20:49.481Z,0.79
2023-03-16T21:23:23.891Z,0.79
2023-03-16T21:25:57.523Z,0.73
2023-03-16T21:28:29.064Z,0.83
2023-03-16T21:30:57.623Z,0.78
2023-03-16T21:33:38.150Z,0.77
2023-03-16T21:36:08.341Z,0.80
2023-03-16T21:38:35.027Z,0.79
2023-03-16T21:41:01.684Z,0.75
2023-03-16T21:43:28.495Z,0.68
2023-03-16T21:45:55.634Z,0.70
2023-03-16T21:48:39.800Z,0.59
2023-03-16T21:51:14.945Z,0.57
2023-03-16T21:53:41.974Z,0.63
2023-03-16T21:56:13.257Z,0.62
2023-03-16T21:58:40.067Z,0.66
2023-03-16T22:01:07.185Z,0.65
2023-03-16T22:03:50.149Z,0.52
2023-03-16T22:06:17.354Z,0.65
2023-03-16T22:08:44.281Z,0.59
2023-03-16T22:11:22.762Z,0.53
2023-03-16T22:13:51.151Z,0.59
2023-03-16T22:16:23.418Z,0.62
2023-03-16T22:18:58.811Z,0.56
2023-03-16T22:21:29.582Z,0.61
2023-03-16T22:23:57.778Z,0.52
2023-03-16T22:26:25.216Z,0.54
2023-03-16T22:28:52.587Z,0.41
2023-03-16T22:31:39.512Z,0.52
2023-03-16T22:34:06.899Z,0.37
2023-03-16T22:36:34.041Z,0.48
2023-03-16T22:39:12.614Z,0.49
2023-03-16T22:41:39.507Z,0.54
2023-03-16T22:44:08.948Z,0.49
2023-03-16T22:46:35.784Z,0.43
2023-03-16T22:49:02.472Z,0.46
2023-03-16T22:51:35.148Z,0.50
2023-03-16T22:54:04.652Z,0.45
2023-03-16T22:56:32.568Z,0.50
2023-03-16T22:59:02.677Z,0.54
2023-03-16T23:01:34.224Z,0.48
2023-03-16T23:04:02.010Z,0.56
2023-03-16T23:06:33.775Z,0.56
2023-03-16T23:09:00.873Z,0.44
2023-03-16T23:11:32.995Z,0.54
2023-03-16T23:14:00.763Z,0.52
2023-03-16T23:16:30.570Z,0.46
2023-03-16T23:18:57.435Z,0.50
2023-03-16T23:21:25.838Z,0.42
2023-03-16T23:24:03.130Z,0.47
2023-03-16T23:26:31.167Z,0.47
2023-03-16T23:28:58.186Z,0.48
2023-03-16T23:31:27.323Z,0.35
2023-03-16T23:33:54.427Z,0.48
2023-03-16T23:36:23.103Z,0.51
2023-03-16T23:38:50.628Z,0.45
2023-03-16T23:41:21.756Z,0.43
2023-03-16T23:43:49.398Z,0.35
2023-03-16T23:46:21.156Z,0.43
2023-03-16T23:48:49.447Z,0.40
2023-03-16T23:51:26.527Z,0.43
2023-03-16T23:53:54.057Z,0.46
2023-03-16T23:56:21.693Z,0.49
2023-03-16T23:58:48.877Z,0.50
